Oswego Center, New York
Current Conditions -  °F | °C
As of 4:54 PM on Monday 20 Oct 2014 (Local Time) from KFZY Reporting Station
Overcast Overcast  
Wind Chill: 53°   Ceiling: 7000
Heat Index: 53°   Visibility: 10mi
Dew Point: 40°   Wind: 6mph
Humidity: 61%   Direction: 180°S
Pressure: 29.87"   Gusts: NA
Location:  43.4571°N, 76.4163°W
Report Text: KFZY 202054Z AUTO 18005KT 10SM OVC070 12/04 A2987 RMK AO2 SLP117 T01170044 56005
Loading
Personal Weather Stations






























Interactive Weather Map
Tropical Storm Tracking
New forecast layout! Learn more

10-Day Weather Forecast

Advertisements
Track Severe Weather on mobile